Time,TemperatureF,DewpointF,PressureIn,WindDirection,WindDirectionDegrees,WindSpeedMPH,WindSpeedGustMPH,Humidity,HourlyPrecipIn,Conditions,Clouds,dailyrainin,SoftwareType,DateUTC
2013-05-30 00:03:00,68.0,65.6,29.88,NNW,337,0.0,1.0,92,0.00,,,0.00,Wunderground v.1.15,2013-05-30 05:03:00,
2013-05-30 00:09:00,68.0,65.3,29.88,NNW,337,0.0,1.0,91,0.00,,,0.00,Wunderground v.1.15,2013-05-30 05:09:00,
2013-05-30 00:14:00,67.9,65.2,29.88,NNW,337,0.0,0.0,91,0.00,,,0.00,Wunderground v.1.15,2013-05-30 05:14:00,
2013-05-30 00:20:00,67.9,65.2,29.88,WNW,303,0.0,0.0,91,0.00,,,0.00,Wunderground v.1.15,2013-05-30 05:20:00,
2013-05-30 00:25:00,67.9,65.2,29.87,WSW,242,0.0,1.0,91,0.00,,,0.00,Wunderground v.1.15,2013-05-30 05:25:00,
2013-05-30 00:30:00,67.9,65.5,29.88,WSW,240,0.0,0.0,92,0.00,,,0.00,Wunderground v.1.15,2013-05-30 05:30:00,
2013-05-30 00:35:00,68.0,65.6,29.88,WSW,240,0.0,0.0,92,0.00,,,0.00,Wunderground v.1.15,2013-05-30 05:35:00,
2013-05-30 00:41:00,68.1,65.7,29.88,WSW,240,0.0,0.0,92,0.00,,,0.00,Wunderground v.1.15,2013-05-30 05:41:00,
2013-05-30 00:46:00,68.0,65.3,29.88,WSW,240,0.0,0.0,91,0.00,,,0.00,Wunderground v.1.15,2013-05-30 05:46:00,
2013-05-30 00:52:00,67.8,65.1,29.87,WSW,240,0.0,0.0,91,0.00,,,0.00,Wunderground v.1.15,2013-05-30 05:52:00,
2013-05-30 00:58:00,67.7,65.0,29.87,WSW,240,0.0,0.0,91,0.00,,,0.00,Wunderground v.1.15,2013-05-30 05:58:00,
2013-05-30 01:03:00,67.6,65.2,29.87,SSW,192,2.0,2.0,92,0.00,,,0.00,Wunderground v.1.15,2013-05-30 06:03:00,
2013-05-30 01:08:00,67.6,65.2,29.87,SSW,205,1.0,3.0,92,0.00,,,0.00,Wunderground v.1.15,2013-05-30 06:08:00,
2013-05-30 01:13:00,67.8,65.4,29.87,SSW,208,2.0,3.0,92,0.00,,,0.00,Wunderground v.1.15,2013-05-30 06:13:00,
2013-05-30 01:18:00,68.5,66.1,29.86,SSW,202,3.0,4.0,92,0.00,,,0.00,Wunderground v.1.15,2013-05-30 06:18:00,
2013-05-30 01:23:00,69.5,66.8,29.87,SSW,207,3.0,6.0,91,0.00,,,0.00,Wunderground v.1.15,2013-05-30 06:23:00,
2013-05-30 01:29:00,70.5,66.8,29.86,SW,223,6.0,6.0,88,0.00,,,0.00,Wunderground v.1.15,2013-05-30 06:29:00,
2013-05-30 01:35:00,71.4,66.7,29.86,SSW,213,4.0,5.0,85,0.00,,,0.00,Wunderground v.1.15,2013-05-30 06:35:00,
2013-05-30 01:40:00,71.6,66.5,29.86,SSW,202,4.0,4.0,84,0.00,,,0.00,Wunderground v.1.15,2013-05-30 06:40:00,
2013-05-30 01:45:00,71.9,66.5,29.86,SSW,213,4.0,7.0,83,0.00,,,0.00,Wunderground v.1.15,2013-05-30 06:45:00,
2013-05-30 01:50:00,72.1,66.6,29.86,SW,227,5.0,5.0,83,0.00,,,0.00,Wunderground v.1.15,2013-05-30 06:50:00,
2013-05-30 01:55:00,72.4,66.6,29.85,SSW,200,4.0,13.0,82,0.00,,,0.00,Wunderground v.1.15,2013-05-30 06:55:00,
2013-05-30 02:00:00,72.6,66.4,29.85,SSW,194,4.0,5.0,81,0.00,,,0.00,Wunderground v.1.15,2013-05-30 07:00:00,
2013-05-30 02:05:00,72.6,66.4,29.85,SW,229,6.0,11.0,81,0.00,,,0.00,Wunderground v.1.15,2013-05-30 07:05:00,
2013-05-30 02:10:00,72.6,66.4,29.85,SSW,207,5.0,6.0,81,0.00,,,0.00,Wunderground v.1.15,2013-05-30 07:10:00,
2013-05-30 02:15:00,72.5,66.0,29.85,SW,215,6.0,11.0,80,0.00,,,0.00,Wunderground v.1.15,2013-05-30 07:15:00,
2013-05-30 02:20:00,72.6,66.1,29.84,SSW,205,3.0,5.0,80,0.00,,,0.00,Wunderground v.1.15,2013-05-30 07:20:00,
2013-05-30 02:25:00,72.6,66.1,29.84,SSW,210,6.0,11.0,80,0.00,,,0.00,Wunderground v.1.15,2013-05-30 07:25:00,
2013-05-30 02:31:00,72.5,66.0,29.84,South,183,8.0,8.0,80,0.00,,,0.00,Wunderground v.1.15,2013-05-30 07:31:00,
2013-05-30 02:36:00,72.4,65.9,29.84,SW,218,4.0,12.0,80,0.00,,,0.00,Wunderground v.1.15,2013-05-30 07:36:00,
2013-05-30 02:41:00,72.2,65.7,29.84,SW,231,3.0,7.0,80,0.00,,,0.00,Wunderground v.1.15,2013-05-30 07:41:00,
2013-05-30 02:47:00,72.1,65.6,29.84,SW,219,5.0,9.0,80,0.00,,,0.00,Wunderground v.1.15,2013-05-30 07:47:00,
2013-05-30 02:52:00,72.1,65.6,29.84,SW,215,3.0,8.0,80,0.00,,,0.00,Wunderground v.1.15,2013-05-30 07:52:00,
2013-05-30 02:57:00,71.9,65.4,29.84,South,173,4.0,8.0,80,0.00,,,0.00,Wunderground v.1.15,2013-05-30 07:57:00,
2013-05-30 03:02:00,71.8,65.3,29.84,SW,233,5.0,7.0,80,0.00,,,0.00,Wunderground v.1.15,2013-05-30 08:02:00,
2013-05-30 03:07:00,71.8,65.3,29.84,SSW,196,4.0,7.0,80,0.00,,,0.00,Wunderground v.1.15,2013-05-30 08:07:00,
2013-05-30 03:12:00,71.7,65.2,29.84,South,175,10.0,10.0,80,0.00,,,0.00,Wunderground v.1.15,2013-05-30 08:12:00,
2013-05-30 03:17:00,71.7,65.2,29.84,SW,219,3.0,10.0,80,0.00,,,0.00,Wunderground v.1.15,2013-05-30 08:17:00,
2013-05-30 03:22:00,71.6,65.1,29.84,SW,236,4.0,6.0,80,0.00,,,0.00,Wunderground v.1.15,2013-05-30 08:22:00,
2013-05-30 03:27:00,71.5,65.0,29.84,SW,217,3.0,9.0,80,0.00,,,0.00,Wunderground v.1.15,2013-05-30 08:27:00,
2013-05-30 03:32:00,71.5,65.0,29.84,SW,219,6.0,6.0,80,0.00,,,0.00,Wunderground v.1.15,2013-05-30 08:32:00,
2013-05-30 03:37:00,71.5,65.0,29.84,SW,223,5.0,7.0,80,0.00,,,0.00,Wunderground v.1.15,2013-05-30 08:37:00,
2013-05-30 03:42:00,71.7,65.2,29.85,SSW,213,7.0,12.0,80,0.00,,,0.00,Wunderground v.1.15,2013-05-30 08:42:00,
2013-05-30 03:47:00,71.6,65.1,29.84,WSW,248,3.0,12.0,80,0.00,,,0.00,Wunderground v.1.15,2013-05-30 08:47:00,
2013-05-30 03:52:00,71.5,65.0,29.84,SSW,213,5.0,6.0,80,0.00,,,0.00,Wunderground v.1.15,2013-05-30 08:52:00,
2013-05-30 03:57:00,71.6,64.7,29.85,SW,226,7.0,11.0,79,0.00,,,0.00,Wunderground v.1.15,2013-05-30 08:57:00,
2013-05-30 04:03:00,71.5,64.6,29.85,SW,236,6.0,11.0,79,0.00,,,0.00,Wunderground v.1.15,2013-05-30 09:03:00,
2013-05-30 04:09:00,71.6,64.7,29.85,SW,230,10.0,11.0,79,0.00,,,0.00,Wunderground v.1.15,2013-05-30 09:09:00,
2013-05-30 04:14:00,71.7,64.8,29.85,SW,223,4.0,8.0,79,0.00,,,0.00,Wunderground v.1.15,2013-05-30 09:14:00,
2013-05-30 04:19:00,71.6,64.7,29.86,SW,221,5.0,12.0,79,0.00,,,0.00,Wunderground v.1.15,2013-05-30 09:19:00,
2013-05-30 04:24:00,71.6,64.7,29.85,SW,224,4.0,12.0,79,0.00,,,0.00,Wunderground v.1.15,2013-05-30 09:24:00,
2013-05-30 04:30:00,71.5,64.6,29.85,SW,230,11.0,11.0,79,0.00,,,0.00,Wunderground v.1.15,2013-05-30 09:30:00,
2013-05-30 04:35:00,71.5,64.3,29.85,WSW,244,5.0,11.0,78,0.00,,,0.00,Wunderground v.1.15,2013-05-30 09:35:00,
2013-05-30 04:41:00,71.5,64.3,29.85,SSW,209,5.0,5.0,78,0.00,,,0.00,Wunderground v.1.15,2013-05-30 09:41:00,
2013-05-30 04:46:00,71.5,64.3,29.85,SW,224,3.0,15.0,78,0.00,,,0.00,Wunderground v.1.15,2013-05-30 09:46:00,
2013-05-30 04:51:00,71.3,64.4,29.85,SW,223,4.0,9.0,79,0.00,,,0.00,Wunderground v.1.15,2013-05-30 09:51:00,
2013-05-30 04:56:00,71.2,64.4,29.85,South,180,6.0,10.0,79,0.00,,,0.00,Wunderground v.1.15,2013-05-30 09:56:00,
2013-05-30 05:01:00,71.1,64.3,29.85,SW,218,5.0,10.0,79,0.00,,,0.00,Wunderground v.1.15,2013-05-30 10:01:00,
2013-05-30 05:07:00,71.1,64.3,29.84,South,184,7.0,13.0,79,0.00,,,0.00,Wunderground v.1.15,2013-05-30 10:07:00,
2013-05-30 05:12:00,71.1,64.3,29.84,SW,226,3.0,9.0,79,0.00,,,0.00,Wunderground v.1.15,2013-05-30 10:12:00,
2013-05-30 05:17:00,71.0,64.2,29.84,SW,221,11.0,11.0,79,0.00,,,0.00,Wunderground v.1.15,2013-05-30 10:17:00,
2013-05-30 05:22:00,70.9,64.1,29.84,South,184,4.0,12.0,79,0.00,,,0.00,Wunderground v.1.15,2013-05-30 10:22:00,
2013-05-30 05:27:00,70.8,64.3,29.83,SSW,205,4.0,12.0,80,0.00,,,0.00,Wunderground v.1.15,2013-05-30 10:27:00,
2013-05-30 05:32:00,70.7,64.2,29.83,South,187,3.0,5.0,80,0.00,,,0.00,Wunderground v.1.15,2013-05-30 10:32:00,
2013-05-30 05:37:00,70.4,63.9,29.83,SSW,208,6.0,6.0,80,0.00,,,0.00,Wunderground v.1.15,2013-05-30 10:37:00,
2013-05-30 05:43:00,70.3,64.2,29.83,SSW,192,2.0,7.0,81,0.00,,,0.00,Wunderground v.1.15,2013-05-30 10:43:00,
2013-05-30 05:48:00,70.2,64.1,29.83,SW,219,6.0,7.0,81,0.00,,,0.00,Wunderground v.1.15,2013-05-30 10:48:00,
2013-05-30 05:53:00,70.1,64.0,29.83,SSW,196,4.0,10.0,81,0.00,,,0.00,Wunderground v.1.15,2013-05-30 10:53:00,
2013-05-30 05:58:00,70.3,64.2,29.83,SW,218,9.0,11.0,81,0.00,,,0.00,Wunderground v.1.15,2013-05-30 10:58:00,
2013-05-30 06:03:00,70.5,64.4,29.84,SSW,206,4.0,8.0,81,0.00,,,0.00,Wunderground v.1.15,2013-05-30 11:03:00,
2013-05-30 06:09:00,70.5,64.7,29.84,SSW,200,5.0,13.0,82,0.00,,,0.00,Wunderground v.1.15,2013-05-30 11:09:00,
2013-05-30 06:14:00,70.7,64.9,29.84,SSW,211,3.0,10.0,82,0.00,,,0.00,Wunderground v.1.15,2013-05-30 11:14:00,
2013-05-30 06:20:00,70.7,64.9,29.84,SW,219,7.0,7.0,82,0.00,,,0.00,Wunderground v.1.15,2013-05-30 11:20:00,
2013-05-30 06:25:00,70.7,64.9,29.84,SW,234,5.0,11.0,82,0.00,,,0.00,Wunderground v.1.15,2013-05-30 11:25:00,
2013-05-30 06:30:00,70.8,65.4,29.84,SW,219,11.0,13.0,83,0.00,,,0.00,Wunderground v.1.15,2013-05-30 11:30:00,
2013-05-30 06:35:00,70.9,65.5,29.85,SSW,205,2.0,13.0,83,0.00,,,0.00,Wunderground v.1.15,2013-05-30 11:35:00,
2013-05-30 06:40:00,71.0,65.2,29.84,SSW,205,9.0,9.0,82,0.00,,,0.00,Wunderground v.1.15,2013-05-30 11:40:00,
2013-05-30 06:46:00,71.2,65.4,29.84,South,176,2.0,13.0,82,0.00,,,0.00,Wunderground v.1.15,2013-05-30 11:46:00,
2013-05-30 06:51:00,71.4,65.6,29.84,SW,221,3.0,3.0,82,0.00,,,0.00,Wunderground v.1.15,2013-05-30 11:51:00,
2013-05-30 06:56:00,71.6,65.8,29.84,South,179,7.0,11.0,82,0.00,,,0.00,Wunderground v.1.15,2013-05-30 11:56:00,
2013-05-30 07:01:00,71.9,66.1,29.84,SW,220,5.0,5.0,82,0.00,,,0.00,Wunderground v.1.15,2013-05-30 12:01:00,
2013-05-30 07:06:00,72.2,66.4,29.85,WSW,242,5.0,10.0,82,0.00,,,0.00,Wunderground v.1.15,2013-05-30 12:06:00,
2013-05-30 07:11:00,72.6,66.4,29.84,SSW,205,5.0,5.0,81,0.00,,,0.00,Wunderground v.1.15,2013-05-30 12:11:00,
2013-05-30 07:16:00,72.9,66.7,29.84,South,190,4.0,7.0,81,0.00,,,0.00,Wunderground v.1.15,2013-05-30 12:16:00,
2013-05-30 07:21:00,73.3,67.1,29.84,SSW,202,5.0,6.0,81,0.00,,,0.00,Wunderground v.1.15,2013-05-30 12:21:00,
2013-05-30 07:26:00,73.6,67.0,29.84,SW,227,6.0,17.0,80,0.00,,,0.00,Wunderground v.1.15,2013-05-30 12:26:00,
2013-05-30 07:31:00,73.9,67.3,29.84,South,188,11.0,11.0,80,0.00,,,0.00,Wunderground v.1.15,2013-05-30 12:31:00,
2013-05-30 07:36:00,74.2,67.3,29.84,SW,221,5.0,13.0,79,0.00,,,0.00,Wunderground v.1.15,2013-05-30 12:36:00,
2013-05-30 07:42:00,74.4,67.5,29.84,SSW,202,11.0,12.0,79,0.00,,,0.00,Wunderground v.1.15,2013-05-30 12:42:00,
2013-05-30 07:47:00,74.7,67.4,29.84,SSW,204,5.0,14.0,78,0.00,,,0.00,Wunderground v.1.15,2013-05-30 12:47:00,
2013-05-30 07:52:00,74.9,67.6,29.84,SW,227,8.0,12.0,78,0.00,,,0.00,Wunderground v.1.15,2013-05-30 12:52:00,
2013-05-30 07:57:00,75.1,67.4,29.83,SSW,202,13.0,19.0,77,0.00,,,0.00,Wunderground v.1.15,2013-05-30 12:57:00,
2013-05-30 08:02:00,75.3,68.0,29.84,SSW,198,12.0,15.0,78,0.00,,,0.00,Wunderground v.1.15,2013-05-30 13:02:00,
2013-05-30 08:07:00,75.5,67.8,29.84,SSW,201,5.0,15.0,77,0.00,,,0.00,Wunderground v.1.15,2013-05-30 13:07:00,
2013-05-30 08:12:00,75.7,68.0,29.84,SW,229,5.0,13.0,77,0.00,,,0.00,Wunderground v.1.15,2013-05-30 13:12:00,
2013-05-30 08:17:00,75.9,68.2,29.83,SW,233,13.0,17.0,77,0.00,,,0.00,Wunderground v.1.15,2013-05-30 13:17:00,
2013-05-30 08:22:00,76.0,68.3,29.84,SW,232,12.0,17.0,77,0.00,,,0.00,Wunderground v.1.15,2013-05-30 13:22:00,
2013-05-30 08:27:00,76.1,68.0,29.84,WSW,242,15.0,17.0,76,0.00,,,0.00,Wunderground v.1.15,2013-05-30 13:27:00,
2013-05-30 08:32:00,76.1,68.4,29.84,SW,233,6.0,11.0,77,0.00,,,0.00,Wunderground v.1.15,2013-05-30 13:32:00,
2013-05-30 08:37:00,76.4,68.3,29.84,SSW,207,6.0,18.0,76,0.00,,,0.00,Wunderground v.1.15,2013-05-30 13:37:00,
2013-05-30 08:42:00,76.6,68.5,29.83,SW,234,6.0,14.0,76,0.00,,,0.00,Wunderground v.1.15,2013-05-30 13:42:00,
2013-05-30 08:47:00,76.6,68.8,29.84,SW,217,7.0,14.0,77,0.00,,,0.00,Wunderground v.1.15,2013-05-30 13:47:00,
2013-05-30 08:52:00,76.8,68.3,29.83,SSW,193,5.0,15.0,75,0.00,,,0.00,Wunderground v.1.15,2013-05-30 13:52:00,
2013-05-30 08:58:00,77.1,69.3,29.83,SSE,168,5.0,18.0,77,0.00,,,0.00,Wunderground v.1.15,2013-05-30 13:58:00,
2013-05-30 09:03:00,77.3,68.8,29.84,South,183,11.0,17.0,75,0.00,,,0.00,Wunderground v.1.15,2013-05-30 14:03:00,
2013-05-30 09:08:00,77.4,68.9,29.84,SW,234,11.0,17.0,75,0.00,,,0.00,Wunderground v.1.15,2013-05-30 14:08:00,
2013-05-30 09:13:00,77.4,69.6,29.83,SW,230,12.0,14.0,77,0.00,,,0.00,Wunderground v.1.15,2013-05-30 14:13:00,
2013-05-30 09:18:00,77.0,68.5,29.83,SW,223,9.0,27.0,75,0.00,,,0.00,Wunderground v.1.15,2013-05-30 14:18:00,
2013-05-30 09:23:00,77.1,69.3,29.84,SW,234,5.0,12.0,77,0.00,,,0.00,Wunderground v.1.15,2013-05-30 14:23:00,
2013-05-30 09:28:00,77.5,69.3,29.84,South,184,16.0,18.0,76,0.00,,,0.00,Wunderground v.1.15,2013-05-30 14:28:00,
2013-05-30 09:33:00,77.3,69.1,29.84,SW,234,6.0,15.0,76,0.00,,,0.00,Wunderground v.1.15,2013-05-30 14:33:00,
2013-05-30 09:38:00,77.3,69.5,29.83,SW,225,6.0,17.0,77,0.00,,,0.00,Wunderground v.1.15,2013-05-30 14:38:00,
2013-05-30 09:43:00,77.5,68.9,29.83,WSW,241,13.0,16.0,75,0.00,,,0.00,Wunderground v.1.15,2013-05-30 14:43:00,
2013-05-30 09:48:00,77.4,68.9,29.83,SW,224,6.0,18.0,75,0.00,,,0.00,Wunderground v.1.15,2013-05-30 14:48:00,
2013-05-30 09:53:00,77.3,68.8,29.83,SSW,205,10.0,16.0,75,0.00,,,0.00,Wunderground v.1.15,2013-05-30 14:53:00,
2013-05-30 09:58:00,77.1,68.9,29.83,WSW,238,10.0,21.0,76,0.00,,,0.00,Wunderground v.1.15,2013-05-30 14:58:00,
2013-05-30 10:03:00,77.3,69.1,29.83,SW,225,17.0,19.0,76,0.00,,,0.00,Wunderground v.1.15,2013-05-30 15:03:00,
2013-05-30 10:09:00,77.3,68.8,29.83,SSW,200,12.0,19.0,75,0.00,,,0.00,Wunderground v.1.15,2013-05-30 15:09:00,
2013-05-30 10:14:00,76.8,69.0,29.83,SSW,206,6.0,17.0,77,0.00,,,0.00,Wunderground v.1.15,2013-05-30 15:14:00,
2013-05-30 10:19:00,76.4,68.7,29.83,SW,232,10.0,17.0,77,0.00,,,0.00,Wunderground v.1.15,2013-05-30 15:19:00,
2013-05-30 10:24:00,76.3,69.3,29.83,SW,221,6.0,14.0,79,0.00,,,0.00,Wunderground v.1.15,2013-05-30 15:24:00,
2013-05-30 10:29:00,76.1,69.1,29.83,WSW,243,9.0,16.0,79,0.00,,,0.00,Wunderground v.1.15,2013-05-30 15:29:00,
2013-05-30 10:34:00,76.0,69.0,29.83,SW,230,9.0,11.0,79,0.00,,,0.00,Wunderground v.1.15,2013-05-30 15:34:00,
2013-05-30 10:39:00,76.1,69.5,29.83,SSW,209,5.0,11.0,80,0.00,,,0.00,Wunderground v.1.15,2013-05-30 15:39:00,
2013-05-30 10:45:00,76.6,69.6,29.82,SW,218,6.0,13.0,79,0.00,,,0.00,Wunderground v.1.15,2013-05-30 15:45:00,
2013-05-30 10:50:00,76.8,69.4,29.82,SSW,203,6.0,16.0,78,0.00,,,0.00,Wunderground v.1.15,2013-05-30 15:50:00,
2013-05-30 10:55:00,77.5,70.5,29.82,SSW,212,4.0,12.0,79,0.00,,,0.00,Wunderground v.1.15,2013-05-30 15:55:00,
2013-05-30 11:00:00,78.4,70.6,29.81,South,190,11.0,18.0,77,0.00,,,0.00,Wunderground v.1.15,2013-05-30 16:00:00,
2013-05-30 11:05:00,78.7,70.1,29.81,SSW,196,11.0,19.0,75,0.00,,,0.00,Wunderground v.1.15,2013-05-30 16:05:00,
2013-05-30 11:10:00,78.8,70.2,29.82,SW,226,9.0,9.0,75,0.00,,,0.00,Wunderground v.1.15,2013-05-30 16:10:00,
2013-05-30 11:15:00,79.0,70.4,29.82,SW,230,13.0,19.0,75,0.00,,,0.00,Wunderground v.1.15,2013-05-30 16:15:00,
2013-05-30 11:20:00,79.1,70.1,29.83,SSW,194,3.0,11.0,74,0.00,,,0.00,Wunderground v.1.15,2013-05-30 16:20:00,
2013-05-30 11:26:00,79.1,70.1,29.82,SW,214,10.0,22.0,74,0.00,,,0.00,Wunderground v.1.15,2013-05-30 16:26:00,
2013-05-30 11:31:00,79.4,70.4,29.82,SSE,156,11.0,17.0,74,0.00,,,0.00,Wunderground v.1.15,2013-05-30 16:31:00,
2013-05-30 11:36:00,79.7,69.5,29.82,SW,216,10.0,24.0,71,0.00,,,0.00,Wunderground v.1.15,2013-05-30 16:36:00,
2013-05-30 11:42:00,79.3,69.5,29.82,SW,225,7.0,16.0,72,0.00,,,0.00,Wunderground v.1.15,2013-05-30 16:42:00,
2013-05-30 11:47:00,79.4,70.0,29.82,SSW,213,11.0,18.0,73,0.00,,,0.00,Wunderground v.1.15,2013-05-30 16:47:00,
2013-05-30 11:52:00,79.7,70.3,29.82,SW,229,6.0,13.0,73,0.00,,,0.00,Wunderground v.1.15,2013-05-30 16:52:00,
2013-05-30 11:57:00,80.3,70.0,29.82,SSW,211,9.0,22.0,71,0.00,,,0.00,Wunderground v.1.15,2013-05-30 16:57:00,
2013-05-30 12:02:00,80.5,69.0,29.82,SW,219,17.0,20.0,68,0.00,,,0.00,Wunderground v.1.15,2013-05-30 17:02:00,
2013-05-30 12:07:00,80.5,69.4,29.81,SW,219,20.0,22.0,69,0.00,,,0.00,Wunderground v.1.15,2013-05-30 17:07:00,
2013-05-30 12:12:00,81.0,69.4,29.81,SW,221,12.0,24.0,68,0.00,,,0.00,Wunderground v.1.15,2013-05-30 17:12:00,
2013-05-30 12:17:00,81.0,70.3,29.81,SW,221,11.0,24.0,70,0.00,,,0.00,Wunderground v.1.15,2013-05-30 17:17:00,
2013-05-30 12:22:00,80.5,69.0,29.82,SW,236,16.0,19.0,68,0.00,,,0.00,Wunderground v.1.15,2013-05-30 17:22:00,
2013-05-30 12:27:00,80.2,69.1,29.81,WSW,244,12.0,19.0,69,0.00,,,0.00,Wunderground v.1.15,2013-05-30 17:27:00,
2013-05-30 12:32:00,81.1,70.8,29.81,SW,219,9.0,15.0,71,0.00,,,0.00,Wunderground v.1.15,2013-05-30 17:32:00,
2013-05-30 12:38:00,81.5,70.3,29.81,SW,221,11.0,15.0,69,0.00,,,0.00,Wunderground v.1.15,2013-05-30 17:38:00,
2013-05-30 12:43:00,81.2,70.1,29.81,South,190,15.0,20.0,69,0.00,,,0.00,Wunderground v.1.15,2013-05-30 17:43:00,
2013-05-30 12:48:00,81.5,70.3,29.80,SSW,200,16.0,22.0,69,0.00,,,0.00,Wunderground v.1.15,2013-05-30 17:48:00,
2013-05-30 12:53:00,80.7,68.3,29.81,SW,216,9.0,23.0,66,0.00,,,0.00,Wunderground v.1.15,2013-05-30 17:53:00,
2013-05-30 12:58:00,81.4,69.4,29.80,SW,222,12.0,23.0,67,0.00,,,0.00,Wunderground v.1.15,2013-05-30 17:58:00,
2013-05-30 13:03:00,81.8,70.2,29.80,SW,216,12.0,20.0,68,0.00,,,0.00,Wunderground v.1.15,2013-05-30 18:03:00,
2013-05-30 13:08:00,82.3,71.1,29.80,West,264,4.0,20.0,69,0.00,,,0.00,Wunderground v.1.15,2013-05-30 18:08:00,
2013-05-30 13:13:00,82.7,70.2,29.80,SSW,203,10.0,20.0,66,0.00,,,0.00,Wunderground v.1.15,2013-05-30 18:13:00,
2013-05-30 13:19:00,82.2,69.7,29.80,SSW,196,12.0,23.0,66,0.00,,,0.00,Wunderground v.1.15,2013-05-30 18:19:00,
2013-05-30 13:24:00,81.8,69.3,29.80,SW,234,13.0,18.0,66,0.00,,,0.00,Wunderground v.1.15,2013-05-30 18:24:00,
2013-05-30 13:29:00,82.2,69.7,29.79,SW,219,11.0,19.0,66,0.00,,,0.00,Wunderground v.1.15,2013-05-30 18:29:00,
2013-05-30 13:34:00,82.3,69.4,29.79,SW,229,11.0,24.0,65,0.00,,,0.00,Wunderground v.1.15,2013-05-30 18:34:00,
2013-05-30 13:39:00,82.1,69.2,29.79,SW,220,12.0,24.0,65,0.00,,,0.00,Wunderground v.1.15,2013-05-30 18:39:00,
2013-05-30 13:45:00,81.7,69.7,29.79,SW,236,5.0,20.0,67,0.00,,,0.00,Wunderground v.1.15,2013-05-30 18:45:00,
2013-05-30 13:50:00,81.9,69.9,29.79,SSW,213,12.0,14.0,67,0.00,,,0.00,Wunderground v.1.15,2013-05-30 18:50:00,
2013-05-30 13:56:00,81.9,69.4,29.79,SSW,198,19.0,19.0,66,0.00,,,0.00,Wunderground v.1.15,2013-05-30 18:56:00,
2013-05-30 14:01:00,82.6,70.5,29.78,SSW,204,7.0,11.0,67,0.00,,,0.00,Wunderground v.1.15,2013-05-30 19:01:00,
2013-05-30 14:06:00,82.8,69.4,29.78,SW,232,15.0,18.0,64,0.00,,,0.00,Wunderground v.1.15,2013-05-30 19:06:00,
2013-05-30 14:12:00,82.7,69.7,29.78,SSW,209,8.0,19.0,65,0.00,,,0.00,Wunderground v.1.15,2013-05-30 19:12:00,
2013-05-30 14:18:00,83.0,70.5,29.77,SSW,194,10.0,22.0,66,0.00,,,0.00,Wunderground v.1.15,2013-05-30 19:18:00,
2013-05-30 14:23:00,82.9,69.0,29.77,SSW,213,12.0,22.0,63,0.00,,,0.00,Wunderground v.1.15,2013-05-30 19:23:00,
2013-05-30 14:28:00,82.6,69.6,29.77,SSW,192,22.0,22.0,65,0.00,,,0.00,Wunderground v.1.15,2013-05-30 19:28:00,
2013-05-30 14:34:00,83.0,69.1,29.77,SW,218,19.0,22.0,63,0.00,,,0.00,Wunderground v.1.15,2013-05-30 19:34:00,
2013-05-30 14:39:00,83.0,69.1,29.77,SSW,195,22.0,24.0,63,0.00,,,0.00,Wunderground v.1.15,2013-05-30 19:39:00,
2013-05-30 14:44:00,82.6,69.6,29.76,SSW,193,11.0,22.0,65,0.00,,,0.00,Wunderground v.1.15,2013-05-30 19:44:00,
2013-05-30 14:49:00,82.1,69.2,29.76,SSW,213,13.0,22.0,65,0.00,,,0.00,Wunderground v.1.15,2013-05-30 19:49:00,
2013-05-30 14:54:00,80.1,69.8,29.76,SW,219,10.0,16.0,71,0.00,,,0.01,Wunderground v.1.15,2013-05-30 19:54:00,
2013-05-30 15:00:00,79.1,70.1,29.75,SW,219,11.0,16.0,74,0.00,,,0.01,Wunderground v.1.15,2013-05-30 20:00:00,
2013-05-30 15:05:00,80.1,70.3,29.75,WSW,254,7.0,14.0,72,0.00,,,0.01,Wunderground v.1.15,2013-05-30 20:05:00,
2013-05-30 15:10:00,81.1,69.1,29.75,SW,215,15.0,15.0,67,0.04,,,0.02,Wunderground v.1.15,2013-05-30 20:10:00,
2013-05-30 15:15:00,81.4,69.4,29.75,SW,223,9.0,24.0,67,0.04,,,0.02,Wunderground v.1.15,2013-05-30 20:15:00,
2013-05-30 15:20:00,82.0,70.0,29.75,South,180,13.0,18.0,67,0.04,,,0.02,Wunderground v.1.15,2013-05-30 20:20:00,
2013-05-30 15:25:00,81.9,69.9,29.74,SSW,201,18.0,24.0,67,0.00,,,0.02,Wunderground v.1.15,2013-05-30 20:25:00,
2013-05-30 15:31:00,81.5,69.5,29.75,SSE,168,10.0,10.0,67,0.00,,,0.02,Wunderground v.1.15,2013-05-30 20:31:00,
2013-05-30 15:36:00,81.4,69.4,29.75,SSW,207,11.0,22.0,67,0.00,,,0.02,Wunderground v.1.15,2013-05-30 20:36:00,
2013-05-30 15:41:00,81.5,69.0,29.75,South,170,11.0,14.0,66,0.00,,,0.02,Wunderground v.1.15,2013-05-30 20:41:00,
2013-05-30 15:46:00,82.0,68.6,29.75,SW,227,12.0,26.0,64,0.00,,,0.02,Wunderground v.1.15,2013-05-30 20:46:00,
2013-05-30 15:51:00,82.1,68.7,29.74,SSW,199,12.0,12.0,64,0.00,,,0.02,Wunderground v.1.15,2013-05-30 20:51:00,
2013-05-30 15:57:00,82.3,68.9,29.74,WSW,244,16.0,20.0,64,0.00,,,0.02,Wunderground v.1.15,2013-05-30 20:57:00,
2013-05-30 16:02:00,81.9,69.0,29.74,SSW,207,11.0,19.0,65,0.00,,,0.02,Wunderground v.1.15,2013-05-30 21:02:00,
2013-05-30 16:07:00,81.3,68.9,29.74,South,175,10.0,19.0,66,0.00,,,0.02,Wunderground v.1.15,2013-05-30 21:07:00,
2013-05-30 16:12:00,80.8,68.8,29.74,South,186,14.0,22.0,67,0.00,,,0.02,Wunderground v.1.15,2013-05-30 21:12:00,
2013-05-30 16:17:00,81.4,69.8,29.73,SW,225,19.0,23.0,68,0.00,,,0.02,Wunderground v.1.15,2013-05-30 21:17:00,
2013-05-30 16:22:00,81.8,69.8,29.73,South,182,13.0,20.0,67,0.00,,,0.02,Wunderground v.1.15,2013-05-30 21:22:00,
2013-05-30 16:27:00,81.6,70.0,29.73,SSW,202,13.0,20.0,68,0.00,,,0.02,Wunderground v.1.15,2013-05-30 21:27:00,
2013-05-30 16:32:00,81.3,69.7,29.73,SSW,198,16.0,18.0,68,0.00,,,0.02,Wunderground v.1.15,2013-05-30 21:32:00,
2013-05-30 16:38:00,80.9,69.3,29.73,SSW,209,19.0,19.0,68,0.00,,,0.02,Wunderground v.1.15,2013-05-30 21:38:00,
2013-05-30 16:43:00,80.6,68.6,29.74,South,184,15.0,29.0,67,0.00,,,0.02,Wunderground v.1.15,2013-05-30 21:43:00,
2013-05-30 16:48:00,80.9,69.3,29.73,SSW,192,12.0,29.0,68,0.00,,,0.02,Wunderground v.1.15,2013-05-30 21:48:00,
2013-05-30 16:53:00,81.2,68.3,29.73,SW,214,10.0,22.0,65,0.00,,,0.02,Wunderground v.1.15,2013-05-30 21:53:00,
2013-05-30 16:58:00,81.2,68.3,29.73,SSW,210,13.0,22.0,65,0.00,,,0.02,Wunderground v.1.15,2013-05-30 21:58:00,
2013-05-30 17:03:00,81.4,68.5,29.73,SW,215,7.0,23.0,65,0.00,,,0.02,Wunderground v.1.15,2013-05-30 22:03:00,
2013-05-30 17:08:00,81.9,70.7,29.73,SSW,194,7.0,23.0,69,0.00,,,0.02,Wunderground v.1.15,2013-05-30 22:08:00,
2013-05-30 17:13:00,82.4,70.8,29.72,SSW,209,15.0,15.0,68,0.00,,,0.02,Wunderground v.1.15,2013-05-30 22:13:00,
2013-05-30 17:18:00,82.2,70.1,29.72,SW,229,19.0,26.0,67,0.00,,,0.02,Wunderground v.1.15,2013-05-30 22:18:00,
2013-05-30 17:24:00,80.4,68.9,29.73,South,171,11.0,24.0,68,0.00,,,0.02,Wunderground v.1.15,2013-05-30 22:24:00,
2013-05-30 17:29:00,78.9,68.3,29.73,South,188,11.0,24.0,70,0.00,,,0.02,Wunderground v.1.15,2013-05-30 22:29:00,
2013-05-30 17:35:00,78.5,68.3,29.72,SW,232,15.0,17.0,71,0.00,,,0.02,Wunderground v.1.15,2013-05-30 22:35:00,
2013-05-30 17:40:00,78.8,68.6,29.72,South,171,7.0,17.0,71,0.00,,,0.02,Wunderground v.1.15,2013-05-30 22:40:00,
2013-05-30 17:45:00,79.0,69.2,29.72,South,188,9.0,14.0,72,0.00,,,0.02,Wunderground v.1.15,2013-05-30 22:45:00,
2013-05-30 17:50:00,78.5,69.1,29.72,SSW,192,10.0,15.0,73,0.00,,,0.02,Wunderground v.1.15,2013-05-30 22:50:00,
2013-05-30 17:55:00,78.2,69.2,29.71,SSW,204,12.0,17.0,74,0.00,,,0.02,Wunderground v.1.15,2013-05-30 22:55:00,
2013-05-30 18:00:00,78.0,69.4,29.72,SSW,198,7.0,11.0,75,0.00,,,0.02,Wunderground v.1.15,2013-05-30 23:00:00,
2013-05-30 18:05:00,77.4,69.6,29.73,South,178,9.0,20.0,77,0.00,,,0.02,Wunderground v.1.15,2013-05-30 23:05:00,
2013-05-30 18:10:00,76.3,70.0,29.73,WSW,247,12.0,12.0,81,0.38,,,0.04,Wunderground v.1.15,2013-05-30 23:10:00,
2013-05-30 18:15:00,74.2,68.7,29.73,SW,223,2.0,14.0,83,0.21,,,0.08,Wunderground v.1.15,2013-05-30 23:15:00,
2013-05-30 18:21:00,72.7,68.3,29.74,SW,233,4.0,4.0,86,0.33,,,0.10,Wunderground v.1.15,2013-05-30 23:21:00,
2013-05-30 18:26:00,71.9,68.2,29.73,SW,235,3.0,6.0,88,0.15,,,0.11,Wunderground v.1.15,2013-05-30 23:26:00,
2013-05-30 18:31:00,71.5,68.4,29.73,SSW,211,0.0,3.0,90,0.62,,,0.19,Wunderground v.1.15,2013-05-30 23:31:00,
2013-05-30 18:36:00,71.3,68.5,29.75,WSW,239,0.0,4.0,91,0.10,,,0.19,Wunderground v.1.15,2013-05-30 23:36:00,
2013-05-30 18:41:00,71.5,69.1,29.74,SSW,203,3.0,4.0,92,0.05,,,0.19,Wunderground v.1.15,2013-05-30 23:41:00,
2013-05-30 18:46:00,71.7,69.6,29.74,SSW,192,4.0,7.0,93,0.04,,,0.19,Wunderground v.1.15,2013-05-30 23:46:00,
2013-05-30 18:52:00,72.1,69.0,29.75,SSE,158,11.0,12.0,90,0.00,,,0.20,Wunderground v.1.15,2013-05-30 23:52:00,
2013-05-30 18:57:00,72.2,68.4,29.74,SW,234,4.0,14.0,88,0.00,,,0.20,Wunderground v.1.15,2013-05-30 23:57:00,
2013-05-30 19:02:00,72.1,68.3,29.75,South,173,5.0,13.0,88,0.00,,,0.20,Wunderground v.1.15,2013-05-31 00:02:00,
2013-05-30 19:07:00,72.0,67.9,29.75,SSE,164,7.0,13.0,87,0.00,,,0.20,Wunderground v.1.15,2013-05-31 00:07:00,
2013-05-30 19:12:00,72.0,68.2,29.75,South,190,5.0,10.0,88,0.00,,,0.20,Wunderground v.1.15,2013-05-31 00:12:00,
2013-05-30 19:17:00,71.8,68.1,29.76,SSW,205,2.0,12.0,88,0.00,,,0.20,Wunderground v.1.15,2013-05-31 00:17:00,
2013-05-30 19:22:00,71.7,68.0,29.76,SSW,207,5.0,9.0,88,0.00,,,0.20,Wunderground v.1.15,2013-05-31 00:22:00,
2013-05-30 19:27:00,71.7,68.0,29.76,South,180,6.0,9.0,88,0.00,,,0.20,Wunderground v.1.15,2013-05-31 00:27:00,
2013-05-30 19:32:00,71.7,68.0,29.76,SSW,207,3.0,5.0,88,0.00,,,0.20,Wunderground v.1.15,2013-05-31 00:32:00,
2013-05-30 19:37:00,71.7,68.0,29.75,South,188,3.0,7.0,88,0.00,,,0.20,Wunderground v.1.15,2013-05-31 00:37:00,
2013-05-30 19:42:00,71.7,68.0,29.75,South,178,3.0,5.0,88,0.00,,,0.20,Wunderground v.1.15,2013-05-31 00:42:00,
2013-05-30 19:47:00,71.8,68.1,29.75,SSW,194,4.0,5.0,88,0.00,,,0.20,Wunderground v.1.15,2013-05-31 00:47:00,
2013-05-30 19:52:00,71.9,68.2,29.74,South,186,5.0,5.0,88,0.00,,,0.20,Wunderground v.1.15,2013-05-31 00:52:00,
2013-05-30 19:57:00,71.9,67.8,29.74,SSE,165,3.0,7.0,87,0.00,,,0.20,Wunderground v.1.15,2013-05-31 00:57:00,
2013-05-30 20:02:00,71.9,67.8,29.75,SSW,202,1.0,3.0,87,0.00,,,0.20,Wunderground v.1.15,2013-05-31 01:02:00,
2013-05-30 20:07:00,71.9,68.2,29.75,SSW,203,1.0,3.0,88,0.00,,,0.20,Wunderground v.1.15,2013-05-31 01:07:00,
2013-05-30 20:12:00,71.8,68.1,29.75,SSW,200,2.0,2.0,88,0.00,,,0.20,Wunderground v.1.15,2013-05-31 01:12:00,
2013-05-30 20:17:00,71.9,67.8,29.76,SW,234,14.0,14.0,87,0.00,,,0.20,Wunderground v.1.15,2013-05-31 01:17:00,
2013-05-30 20:22:00,70.4,66.0,29.81,SW,235,12.0,19.0,86,3.03,,,0.32,Wunderground v.1.15,2013-05-31 01:22:00,
2013-05-30 20:27:00,68.2,65.2,29.77,WSW,240,10.0,19.0,90,2.87,,,0.49,Wunderground v.1.15,2013-05-31 01:27:00,
2013-05-30 20:33:00,67.2,64.8,29.77,NW,318,0.0,8.0,92,0.17,,,0.52,Wunderground v.1.15,2013-05-31 01:33:00,
2013-05-30 20:38:00,66.8,64.7,29.78,SW,234,4.0,8.0,93,0.07,,,0.52,Wunderground v.1.15,2013-05-31 01:38:00,
2013-05-30 20:44:00,66.4,64.3,29.78,West,277,2.0,7.0,93,0.04,,,0.52,Wunderground v.1.15,2013-05-31 01:44:00,
2013-05-30 20:49:00,66.1,64.3,29.79,SW,223,1.0,7.0,94,0.00,,,0.52,Wunderground v.1.15,2013-05-31 01:49:00,
2013-05-30 20:54:00,66.0,64.2,29.79,SW,236,3.0,4.0,94,0.00,,,0.53,Wunderground v.1.15,2013-05-31 01:54:00,
2013-05-30 20:59:00,65.8,64.0,29.81,SSW,204,4.0,7.0,94,0.17,,,0.54,Wunderground v.1.15,2013-05-31 01:59:00,
2013-05-30 21:04:00,65.7,64.2,29.80,SSW,213,1.0,5.0,95,0.07,,,0.54,Wunderground v.1.15,2013-05-31 02:04:00,
2013-05-30 21:09:00,65.6,64.1,29.80,SSW,212,1.0,5.0,95,0.05,,,0.54,Wunderground v.1.15,2013-05-31 02:09:00,
2013-05-30 21:14:00,65.5,64.0,29.81,SW,217,0.0,4.0,95,0.00,,,0.54,Wunderground v.1.15,2013-05-31 02:14:00,
2013-05-30 21:19:00,65.5,64.0,29.82,SW,225,3.0,5.0,95,0.00,,,0.54,Wunderground v.1.15,2013-05-31 02:19:00,
2013-05-30 21:24:00,65.5,64.0,29.82,SSW,213,2.0,3.0,95,0.00,,,0.54,Wunderground v.1.15,2013-05-31 02:24:00,
2013-05-30 21:29:00,65.4,63.9,29.82,SW,215,1.0,3.0,95,0.00,,,0.54,Wunderground v.1.15,2013-05-31 02:29:00,
2013-05-30 21:34:00,65.3,63.8,29.82,SW,215,2.0,5.0,95,0.00,,,0.54,Wunderground v.1.15,2013-05-31 02:34:00,
2013-05-30 21:39:00,65.3,63.8,29.82,SSW,202,4.0,5.0,95,0.00,,,0.54,Wunderground v.1.15,2013-05-31 02:39:00,
2013-05-30 21:44:00,65.2,63.7,29.82,South,178,3.0,8.0,95,0.00,,,0.54,Wunderground v.1.15,2013-05-31 02:44:00,
2013-05-30 21:49:00,65.2,63.7,29.81,SSE,166,2.0,8.0,95,0.00,,,0.54,Wunderground v.1.15,2013-05-31 02:49:00,
2013-05-30 21:54:00,65.0,63.5,29.82,South,175,4.0,5.0,95,0.00,,,0.54,Wunderground v.1.15,2013-05-31 02:54:00,
2013-05-30 22:00:00,64.9,63.4,29.81,SSW,198,2.0,2.0,95,0.00,,,0.54,Wunderground v.1.15,2013-05-31 03:00:00,
2013-05-30 22:05:00,64.9,63.4,29.81,South,184,3.0,6.0,95,0.00,,,0.54,Wunderground v.1.15,2013-05-31 03:05:00,
2013-05-30 22:10:00,64.8,63.3,29.81,SSW,194,1.0,3.0,95,0.00,,,0.54,Wunderground v.1.15,2013-05-31 03:10:00,
2013-05-30 22:15:00,64.7,62.9,29.81,South,182,3.0,4.0,94,0.00,,,0.54,Wunderground v.1.15,2013-05-31 03:15:00,
2013-05-30 22:21:00,64.6,62.8,29.81,South,175,2.0,4.0,94,0.00,,,0.54,Wunderground v.1.15,2013-05-31 03:21:00,
2013-05-30 22:27:00,64.5,62.7,29.81,SSW,196,3.0,6.0,94,0.00,,,0.54,Wunderground v.1.15,2013-05-31 03:27:00,
2013-05-30 22:32:00,64.5,62.7,29.82,SSW,192,5.0,5.0,94,0.00,,,0.54,Wunderground v.1.15,2013-05-31 03:32:00,
2013-05-30 22:37:00,64.5,62.7,29.82,South,178,3.0,5.0,94,0.00,,,0.54,Wunderground v.1.15,2013-05-31 03:37:00,
2013-05-30 22:42:00,64.4,62.6,29.83,SSW,205,2.0,4.0,94,0.00,,,0.54,Wunderground v.1.15,2013-05-31 03:42:00,
2013-05-30 22:47:00,64.3,62.5,29.83,South,189,3.0,10.0,94,0.00,,,0.54,Wunderground v.1.15,2013-05-31 03:47:00,
2013-05-30 22:53:00,64.2,62.1,29.83,SSW,199,4.0,5.0,93,0.00,,,0.54,Wunderground v.1.15,2013-05-31 03:53:00,
2013-05-30 22:58:00,64.2,62.1,29.83,SSW,202,4.0,6.0,93,0.00,,,0.54,Wunderground v.1.15,2013-05-31 03:58:00,
2013-05-30 23:01:00,64.1,62.0,29.83,SSW,205,3.0,4.0,93,0.00,,,0.55,Wunderground v.1.15,2013-05-31 04:01:00,
2013-05-30 23:02:00,64.1,62.0,29.83,SSW,211,4.0,6.0,93,0.00,,,0.55,Wunderground v.1.15,2013-05-31 04:02:00,
2013-05-30 23:07:00,63.9,61.8,29.83,WSW,243,4.0,10.0,93,0.15,,,0.56,Wunderground v.1.15,2013-05-31 04:07:00,
2013-05-30 23:13:00,63.6,61.5,29.82,SSW,198,3.0,10.0,93,0.08,,,0.57,Wunderground v.1.15,2013-05-31 04:13:00,
2013-05-30 23:18:00,63.4,61.3,29.81,SSW,204,1.0,10.0,93,0.09,,,0.58,Wunderground v.1.15,2013-05-31 04:18:00,
2013-05-30 23:23:00,63.2,61.4,29.81,South,188,4.0,9.0,94,0.09,,,0.58,Wunderground v.1.15,2013-05-31 04:23:00,
2013-05-30 23:28:00,63.1,61.3,29.81,SSW,200,1.0,9.0,94,0.05,,,0.58,Wunderground v.1.15,2013-05-31 04:28:00,
2013-05-30 23:33:00,63.0,61.2,29.81,SSW,208,1.0,3.0,94,0.05,,,0.59,Wunderground v.1.15,2013-05-31 04:33:00,
2013-05-30 23:38:00,63.0,61.2,29.81,SSW,193,6.0,6.0,94,0.05,,,0.59,Wunderground v.1.15,2013-05-31 04:38:00,
2013-05-30 23:44:00,63.0,61.5,29.83,SSW,203,3.0,7.0,95,0.05,,,0.60,Wunderground v.1.15,2013-05-31 04:44:00,
2013-05-30 23:49:00,62.9,61.4,29.83,SSW,209,2.0,7.0,95,0.10,,,0.61,Wunderground v.1.15,2013-05-31 04:49:00,
2013-05-30 23:54:00,62.9,61.4,29.82,SW,217,3.0,9.0,95,0.11,,,0.62,Wunderground v.1.15,2013-05-31 04:54:00,
2013-05-30 23:59:00,62.9,61.4,29.82,SSW,194,3.0,10.0,95,0.10,,,0.62,Wunderground v.1.15,2013-05-31 04:59:00,